»·PEaware :: N172MP KSBA-KSMX

N172MP :: KSBA-KSMX

FLIGHT INFORMATION

Flight Status: Arrived
Operator: Privately registered:
United States
More flights under this callsign
Pilot: Michael S. (15761)
Aircraft: CESSNA 172 SKYHAWK
(C172)
More flights by this aircraft type
Origin: KSBA Santa Barbara Mun
United States
Destination: KSMX Santa Maria Pub/Capt Hancock
United States
More flights between these airports :: More routes between these airports
Route: GVO ORCUT KSMX
File this flight plan on PilotEdge
Remarks:
Altitude:
(Current/Filed)
6,000ft
Speed:
(Current/Filed)
115kts
Departed: 02-Dec-19 06:52 PM
Arrived: 02-Dec-19 07:29 PM
Distance/Time
Traveled:
41nm/0:37
Distance/Time
To Go:
Arrived

Flight Plot

Page will automatically refresh every two minutes.

Flight plan parsing failed; only flown route is shown


Map Options




Map Legend


Flown Route
Filed Route
Departure Airport
Arrival Airport
Navaid (VOR, NDB)
Fix

Horizontal Profiles

Position Reports

Time Latitude Longitude Heading Altitude Ground
Speed
02-Dec-19 18:19 34.428783 -119.846124 178 17ft 0kts
02-Dec-19 18:20 34.428783 -119.846124 178 17ft 0kts
02-Dec-19 18:21 34.428783 -119.846124 178 17ft 0kts
02-Dec-19 18:22 34.428783 -119.846124 178 17ft 0kts
02-Dec-19 18:23 34.428783 -119.846124 178 17ft 0kts
02-Dec-19 18:24 34.428783 -119.846124 178 17ft 0kts
02-Dec-19 18:25 34.428783 -119.846124 178 17ft 0kts
02-Dec-19 18:26 34.428783 -119.846124 178 17ft 0kts
02-Dec-19 18:27 34.428783 -119.846124 178 17ft 0kts
02-Dec-19 18:28 34.428783 -119.846124 178 17ft 0kts
02-Dec-19 18:29 34.428783 -119.846124 178 17ft 0kts
02-Dec-19 18:30 34.428783 -119.846124 178 17ft 0kts
02-Dec-19 18:31 34.428783 -119.846124 178 17ft 0kts
02-Dec-19 18:32 34.428783 -119.846124 178 17ft 0kts
02-Dec-19 18:33 34.428783 -119.846124 178 17ft 0kts
02-Dec-19 18:34 34.428783 -119.846124 178 17ft 0kts
02-Dec-19 18:35 34.428783 -119.846124 178 17ft 0kts
02-Dec-19 18:36 34.428783 -119.846124 178 17ft 0kts
02-Dec-19 18:36 34.428783 -119.846124 178 17ft 0kts
02-Dec-19 18:38 34.428783 -119.846124 178 17ft 0kts
02-Dec-19 18:39 34.428783 -119.846124 178 17ft 0kts
02-Dec-19 18:39 34.428783 -119.846124 178 17ft 0kts
02-Dec-19 18:40 34.428783 -119.846124 178 17ft 0kts
02-Dec-19 18:42 34.428783 -119.846124 178 17ft 0kts
02-Dec-19 18:43 34.428783 -119.846124 178 17ft 0kts
02-Dec-19 18:43 34.428871 -119.843811 88 17ft 17kts
02-Dec-19 18:44 34.428909 -119.841856 87 17ft 0kts
02-Dec-19 18:45 34.428909 -119.841856 87 17ft 0kts
02-Dec-19 18:46 34.428577 -119.841930 254 17ft 10kts
02-Dec-19 18:48 34.429893 -119.842014 43 17ft 0kts
02-Dec-19 18:49 34.429988 -119.841846 64 17ft 10kts
02-Dec-19 18:51 34.430221 -119.840285 134 17ft 0kts
02-Dec-19 18:51 34.423647 -119.838157 165 186ft 76kts
02-Dec-19 18:52 34.404071 -119.831573 162 1332ft 72kts
02-Dec-19 18:53 34.385493 -119.826816 172 2358ft 69kts
02-Dec-19 18:54 34.363455 -119.824750 178 3178ft 93kts
02-Dec-19 18:55 34.331378 -119.820961 173 3211ft 129kts
02-Dec-19 18:56 34.294968 -119.815490 162 3212ft 133kts
02-Dec-19 18:57 34.259376 -119.802891 165 3209ft 133kts
02-Dec-19 18:58 34.223431 -119.791994 165 3209ft 133kts
02-Dec-19 18:59 34.187321 -119.781050 165 3209ft 133kts
02-Dec-19 19:00 34.158271 -119.790053 270 3447ft 122kts
02-Dec-19 19:01 34.183734 -119.811900 337 4033ft 117kts
02-Dec-19 19:02 34.213512 -119.826740 337 4631ft 115kts
02-Dec-19 19:03 34.242869 -119.841363 337 5229ft 113kts
02-Dec-19 19:04 34.271673 -119.855706 337 5826ft 111kts
02-Dec-19 19:05 34.301079 -119.870340 337 6163ft 127kts
02-Dec-19 19:06 34.334796 -119.887086 337 6148ft 132kts
02-Dec-19 19:07 34.368221 -119.903675 337 6148ft 133kts
02-Dec-19 19:08 34.402111 -119.920487 337 6148ft 133kts
02-Dec-19 19:09 34.436095 -119.937366 336 6148ft 133kts
02-Dec-19 19:10 34.467537 -119.960654 326 6148ft 133kts
02-Dec-19 19:11 34.497120 -119.986135 299 6141ft 133kts
02-Dec-19 19:12 34.507530 -120.028930 291 6141ft 133kts
02-Dec-19 19:13 34.523319 -120.068841 296 6141ft 133kts
02-Dec-19 19:14 34.545941 -120.102390 321 6137ft 133kts
02-Dec-19 19:15 34.574421 -120.128802 322 6136ft 133kts
02-Dec-19 19:16 34.603886 -120.155872 322 6136ft 133kts
02-Dec-19 19:17 34.633366 -120.182974 322 6136ft 133kts
02-Dec-19 19:18 34.662778 -120.209988 323 5868ft 129kts
02-Dec-19 19:19 34.684898 -120.243039 305 5164ft 126kts
02-Dec-19 19:20 34.705360 -120.277532 306 4463ft 126kts
02-Dec-19 19:21 34.725851 -120.312074 306 3763ft 126kts
02-Dec-19 19:22 34.747134 -120.341932 323 3516ft 107kts
02-Dec-19 19:23 34.772723 -120.361260 330 3082ft 127kts
02-Dec-19 19:24 34.804889 -120.383205 330 2154ft 125kts
02-Dec-19 19:25 34.831070 -120.402010 330 2103ft 112kts
02-Dec-19 19:26 34.858007 -120.422245 324 1215ft 102kts
02-Dec-19 19:27 34.881816 -120.435694 337 643ft 84kts
02-Dec-19 19:28 34.897132 -120.451030 320 265ft 16kts
02-Dec-19 19:29 34.898856 -120.451529 81 265ft 0kts
02-Dec-19 19:30 34.898856 -120.451529 81 265ft 0kts
02-Dec-19 19:31 34.900122 -120.450978 100 265ft 12kts

Navigation Log

Ident Type
Flight plan parsing failed, navigation log unavailable